createdAt,value
2019-04-10T15:51:08.822Z,72.03
2019-04-10T15:53:38.434Z,77.12
2019-04-10T15:56:09.652Z,73.40
2019-04-10T15:58:42.011Z,78.97
2019-04-10T16:01:16.002Z,81.78
2019-04-10T16:03:47.175Z,76.33
2019-04-10T16:06:17.477Z,76.20
2019-04-10T16:08:48.280Z,78.17
2019-04-10T16:11:41.719Z,79.75
2019-04-10T16:14:22.041Z,78.28
2019-04-10T16:17:15.168Z,83.00
2019-04-10T16:20:11.334Z,81.80
2019-04-10T16:22:48.663Z,86.42
2019-04-10T16:25:24.036Z,84.42
2019-04-10T16:27:54.093Z,82.92
2019-04-10T16:30:26.292Z,84.20
2019-04-10T16:32:56.562Z,79.25
2019-04-10T16:35:27.699Z,81.10
2019-04-10T16:37:58.163Z,83.87
2019-04-10T16:40:27.960Z,81.75
2019-04-10T16:42:57.908Z,82.53
2019-04-10T16:45:38.675Z,91.03
2019-04-10T16:48:08.715Z,87.92
2019-04-10T16:50:39.723Z,87.25
2019-04-10T16:53:10.376Z,87.47
2019-04-10T16:55:41.018Z,78.02
2019-04-10T16:58:11.866Z,78.65
2019-04-10T17:00:41.833Z,78.97
2019-04-10T17:03:11.807Z,78.93
2019-04-10T17:05:48.001Z,88.65
2019-04-10T17:08:17.763Z,85.12
2019-04-10T17:10:48.286Z,88.90
2019-04-10T17:13:18.325Z,87.00
2019-04-10T17:15:55.493Z,85.90
2019-04-10T17:18:27.474Z,86.22
2019-04-10T17:23:46.877Z,85.60
2019-04-10T17:26:17.160Z,84.80
2019-04-10T17:28:48.300Z,90.60
2019-04-10T17:31:18.394Z,89.03
2019-04-10T17:33:48.143Z,88.58
2019-04-10T17:36:18.913Z,89.22
2019-04-10T17:41:19.673Z,92.97
2019-04-10T17:43:54.711Z,86.00
2019-04-10T17:46:26.937Z,90.15
2019-04-10T17:48:56.964Z,94.75
2019-04-10T17:51:28.179Z,104.25
2019-04-10T17:53:58.235Z,108.72
2019-04-10T17:56:28.351Z,109.57
2019-04-10T17:58:58.728Z,101.12
2019-04-10T18:01:30.138Z,99.58
2019-04-10T18:04:03.142Z,94.52
2019-04-10T18:06:31.802Z,98.47
2019-04-10T18:09:07.630Z,94.55
2019-04-10T18:11:39.493Z,91.42
2019-04-10T18:14:11.046Z,89.60
2019-04-10T18:16:44.299Z,108.12
2019-04-10T18:19:30.358Z,100.27
2019-04-10T18:22:22.579Z,94.30
2019-04-10T18:24:55.798Z,96.17
2019-04-10T18:27:38.631Z,93.25
2019-04-10T18:30:19.966Z,96.05
2019-04-10T18:32:54.029Z,98.85
2019-04-10T18:35:36.827Z,99.28
2019-04-10T18:38:08.946Z,94.67
2019-04-10T18:40:52.279Z,93.42
2019-04-10T18:43:14.308Z,94.90
2019-04-10T18:45:57.496Z,93.40
2019-04-10T18:48:21.342Z,91.82
2019-04-10T18:50:51.646Z,98.17
2019-04-10T18:53:24.687Z,93.52
2019-04-10T18:55:56.672Z,90.57
2019-04-10T18:58:30.127Z,98.65
2019-04-10T19:01:31.751Z,91.22
2019-04-10T19:04:14.034Z,107.75
2019-04-10T19:06:57.158Z,100.95
2019-04-10T19:09:42.883Z,99.45
2019-04-10T19:12:36.861Z,92.20
2019-04-10T19:15:09.113Z,90.35
2019-04-10T19:17:55.296Z,97.22
2019-04-10T19:20:29.101Z,97.27
2019-04-10T19:23:00.984Z,97.55
2019-04-10T19:25:34.501Z,96.70
2019-04-10T19:28:06.570Z,99.65
2019-04-10T19:30:45.552Z,94.45
2019-04-10T19:33:16.909Z,97.25
2019-04-10T19:35:47.566Z,102.10
2019-04-10T19:38:19.003Z,100.58
2019-04-10T19:40:52.105Z,98.12
2019-04-10T19:43:33.256Z,95.70
2019-04-10T19:46:06.217Z,96.50
2019-04-10T19:48:37.571Z,100.07
2019-04-10T19:51:21.769Z,99.92
2019-04-10T19:53:54.364Z,96.08
2019-04-10T19:56:26.741Z,102.30
2019-04-10T19:58:59.297Z,96.37
2019-04-10T20:01:31.236Z,105.17
2019-04-10T20:04:02.063Z,95.80
2019-04-10T20:06:34.227Z,99.72
2019-04-10T20:09:06.391Z,102.12
2019-04-10T20:11:40.309Z,103.65
2019-04-10T20:14:08.412Z,111.50
2019-04-10T20:16:39.270Z,107.63
2019-04-10T20:21:45.154Z,100.47
2019-04-10T20:24:15.199Z,102.40
2019-04-10T20:26:47.541Z,99.10
2019-04-10T20:29:19.900Z,107.37
2019-04-10T20:31:53.333Z,104.87
2019-04-10T20:34:24.264Z,95.87
2019-04-10T20:37:12.945Z,95.50
2019-04-10T20:40:07.512Z,100.40
2019-04-10T20:42:40.354Z,109.72
2019-04-10T20:45:14.207Z,104.87
2019-04-10T20:47:49.836Z,108.35
2019-04-10T20:50:21.709Z,106.65
2019-04-10T20:52:51.584Z,102.27
2019-04-10T20:55:21.615Z,100.95
2019-04-10T20:57:52.074Z,104.50
2019-04-10T21:00:30.738Z,100.55
2019-04-10T21:03:02.751Z,106.15
2019-04-10T21:05:42.359Z,107.43
2019-04-10T21:08:12.631Z,104.63
2019-04-10T21:10:45.018Z,102.95
2019-04-10T21:13:17.131Z,100.38
2019-04-10T21:15:51.564Z,107.32
2019-04-10T21:18:27.575Z,104.38
2019-04-10T21:20:57.665Z,102.75
2019-04-10T21:23:27.384Z,95.50
2019-04-10T21:25:57.432Z,101.15
2019-04-10T21:28:28.301Z,109.22
2019-04-10T21:31:23.605Z,100.07
2019-04-10T21:34:19.720Z,105.87
2019-04-10T21:36:49.613Z,104.30
2019-04-10T21:39:19.308Z,104.90
2019-04-10T21:41:49.150Z,102.38
2019-04-10T21:44:18.880Z,107.32
2019-04-10T21:46:48.688Z,105.92
2019-04-10T21:49:18.452Z,106.30
2019-04-10T21:51:48.109Z,107.25
2019-04-10T21:54:18.489Z,108.57
2019-04-10T21:56:53.431Z,104.10
2019-04-10T21:59:26.771Z,104.60
2019-04-10T22:01:57.036Z,101.07
2019-04-10T22:04:34.923Z,112.88
2019-04-10T22:07:23.829Z,104.23
2019-04-10T22:10:21.456Z,103.35
2019-04-10T22:12:52.645Z,109.32
2019-04-10T22:15:53.711Z,112.32
2019-04-10T22:18:23.752Z,103.05
2019-04-10T22:20:54.176Z,104.13
2019-04-10T22:23:24.511Z,102.67
2019-04-10T22:25:54.299Z,104.17
2019-04-10T22:28:25.362Z,107.37
2019-04-10T22:30:55.339Z,106.85
2019-04-10T22:33:25.030Z,103.60
2019-04-10T22:35:55.930Z,108.78
2019-04-10T22:38:27.276Z,105.15
2019-04-10T22:40:58.122Z,103.22
2019-04-10T22:43:28.246Z,103.83
2019-04-10T22:45:57.990Z,106.00
2019-04-10T22:48:28.687Z,104.72
2019-04-10T22:54:08.119Z,106.78
2019-04-10T22:56:38.230Z,105.52
2019-04-10T22:59:08.181Z,103.43
2019-04-10T23:01:38.203Z,103.58
2019-04-10T23:04:08.010Z,103.97
2019-04-10T23:06:37.839Z,104.10
2019-04-10T23:09:08.915Z,106.45
2019-04-10T23:11:42.214Z,103.22
2019-04-10T23:14:10.276Z,101.82
2019-04-10T23:16:40.111Z,101.85
2019-04-10T23:19:09.959Z,100.58
2019-04-10T23:21:40.762Z,109.03
2019-04-10T23:26:39.865Z,105.58
2019-04-10T23:29:09.497Z,100.53
2019-04-10T23:31:39.526Z,104.32
2019-04-10T23:34:09.478Z,100.25
2019-04-10T23:36:40.304Z,97.95
2019-04-10T23:41:40.017Z,98.70
2019-04-10T23:44:11.003Z,93.50
2019-04-10T23:46:40.880Z,95.38
2019-04-10T23:49:11.152Z,91.17
2019-04-10T23:51:40.747Z,96.92
2019-04-10T23:54:11.162Z,97.90
2019-04-10T23:56:41.936Z,95.20
2019-04-10T23:59:12.708Z,96.25
